createdAt,value
2023-05-22T00:02:33.512Z,99214.06
2023-05-22T00:05:41.673Z,99214.88
2023-05-22T00:08:46.016Z,99214.88
2023-05-22T00:11:49.991Z,99211.22
2023-05-22T00:14:54.075Z,99210.63
2023-05-22T00:17:57.999Z,99212.44
2023-05-22T00:21:03.332Z,99214.25
2023-05-22T00:24:08.013Z,99218.53
2023-05-22T00:27:12.021Z,99212.03
2023-05-22T00:30:16.143Z,99209.59
2023-05-22T00:33:20.212Z,99211.22
2023-05-22T00:36:25.679Z,99221.16
2023-05-22T00:39:29.525Z,99230.72
2023-05-22T00:42:33.754Z,99227.25
2023-05-22T00:45:37.980Z,99220.56
2023-05-22T00:48:41.816Z,99225.41
2023-05-22T00:51:47.571Z,99226.22
2023-05-22T00:54:52.505Z,99225.00
2023-05-22T00:57:56.843Z,99220.97
2023-05-22T01:01:01.387Z,99224.44
2023-05-22T01:04:08.297Z,99223.19
2023-05-22T01:07:13.826Z,99218.94
2023-05-22T01:10:17.926Z,99224.44
2023-05-22T01:13:30.429Z,99236.00
2023-05-22T01:16:47.098Z,99221.78
2023-05-22T01:20:07.873Z,99227.47
2023-05-22T01:23:49.093Z,99219.56
2023-05-22T01:27:26.323Z,99218.31
2023-05-22T01:30:58.038Z,99213.66
2023-05-22T01:34:05.070Z,99221.78
2023-05-22T01:37:11.548Z,99212.44
2023-05-22T01:40:16.083Z,99204.72
2023-05-22T01:43:20.893Z,99203.88
2023-05-22T01:46:29.134Z,99212.44
2023-05-22T01:49:34.900Z,99207.94
2023-05-22T01:52:47.573Z,99207.34
2023-05-22T01:55:58.417Z,99205.31
2023-05-22T01:59:09.898Z,99208.16
2023-05-22T02:02:18.550Z,99215.09
2023-05-22T02:05:23.932Z,99211.44
2023-05-22T02:08:29.256Z,99209.59
2023-05-22T02:11:35.544Z,99213.84
2023-05-22T02:14:39.602Z,99215.47
2023-05-22T02:17:45.866Z,99206.75
2023-05-22T02:20:49.889Z,99216.50
2023-05-22T02:23:53.705Z,99213.84
2023-05-22T02:26:58.507Z,99215.09
2023-05-22T02:30:02.568Z,99214.06
2023-05-22T02:33:09.618Z,99217.31
2023-05-22T02:36:14.846Z,99219.34
2023-05-22T02:39:19.205Z,99229.69
2023-05-22T02:42:23.261Z,99221.34
2023-05-22T02:45:27.332Z,99222.59
2023-05-22T02:48:32.850Z,99220.56
2023-05-22T02:51:37.073Z,99220.38
2023-05-22T02:54:41.001Z,99215.91
2023-05-22T02:57:45.300Z,99218.13
2023-05-22T03:00:49.305Z,99215.91
2023-05-22T03:03:55.279Z,99217.31
2023-05-22T03:06:59.541Z,99222.41
2023-05-22T03:10:05.277Z,99215.91
2023-05-22T03:13:09.131Z,99219.75
2023-05-22T03:16:13.494Z,99222.00
2023-05-22T03:19:24.061Z,99222.41
2023-05-22T03:22:28.189Z,99219.94
2023-05-22T03:25:32.120Z,99216.31
2023-05-22T03:28:36.217Z,99219.94
2023-05-22T03:31:40.142Z,99217.72
2023-05-22T03:34:49.123Z,99223.00
2023-05-22T03:37:53.037Z,99219.75
2023-05-22T03:40:56.982Z,99213.84
2023-05-22T03:44:01.227Z,99226.88
2023-05-22T03:47:05.713Z,99222.00
2023-05-22T03:50:12.215Z,99222.19
2023-05-22T03:53:16.163Z,99226.06
2023-05-22T03:56:20.008Z,99227.47
2023-05-22T03:59:25.242Z,99227.47
2023-05-22T04:02:30.506Z,99228.09
2023-05-22T04:05:36.137Z,99229.31
2023-05-22T04:08:40.403Z,99229.31
2023-05-22T04:11:44.369Z,99227.25
2023-05-22T04:14:48.342Z,99230.72
2023-05-22T04:17:52.757Z,99235.19
2023-05-22T04:20:58.433Z,99231.97
2023-05-22T04:24:07.612Z,99227.69
2023-05-22T04:27:11.660Z,99234.78
2023-05-22T04:30:18.814Z,99222.78
2023-05-22T04:33:22.911Z,99230.13
2023-05-22T04:36:29.552Z,99229.13
2023-05-22T04:39:34.540Z,99241.25
2023-05-22T04:42:39.438Z,99243.75
2023-05-22T04:45:43.826Z,99237.22
2023-05-22T04:48:48.461Z,99244.34
2023-05-22T04:51:55.591Z,99235.59
2023-05-22T04:55:01.115Z,99241.28
2023-05-22T04:58:06.800Z,99240.00
2023-05-22T05:01:11.203Z,99240.84
2023-05-22T05:04:15.320Z,99242.31
2023-05-22T05:07:21.994Z,99238.66
2023-05-22T05:10:26.240Z,99249.63
2023-05-22T05:13:30.232Z,99246.59
2023-05-22T05:16:35.167Z,99241.28
2023-05-22T05:19:39.270Z,99245.19
2023-05-22T05:22:46.426Z,99252.69
2023-05-22T05:25:52.143Z,99248.00
2023-05-22T05:28:57.288Z,99249.56
2023-05-22T05:32:07.839Z,99249.59
2023-05-22T05:35:18.080Z,99245.53
2023-05-22T05:38:27.416Z,99253.84
2023-05-22T05:41:32.568Z,99253.78
2023-05-22T05:44:43.407Z,99261.41
2023-05-22T05:47:49.333Z,99265.47
2023-05-22T05:50:54.073Z,99270.72
2023-05-22T05:54:00.525Z,99274.56
2023-05-22T05:57:04.764Z,99276.53
2023-05-22T06:00:12.086Z,99279.97
2023-05-22T06:03:19.467Z,99277.63
2023-05-22T06:06:39.568Z,99279.66
2023-05-22T06:09:47.970Z,99288.63
2023-05-22T06:13:01.498Z,99274.94
2023-05-22T06:16:06.883Z,99287.06
2023-05-22T06:19:11.945Z,99296.38
2023-05-22T06:22:16.410Z,99300.44
2023-05-22T06:25:26.328Z,99303.00
2023-05-22T06:28:30.588Z,99286.44
2023-05-22T06:31:38.876Z,99296.53
2023-05-22T06:34:45.311Z,99291.16
2023-05-22T06:37:50.121Z,99299.69
2023-05-22T06:40:56.024Z,99306.91
2023-05-22T06:44:03.570Z,99303.44
2023-05-22T06:47:08.005Z,99309.75
2023-05-22T06:50:12.956Z,99306.91
2023-05-22T06:53:17.158Z,99306.47
2023-05-22T06:56:23.094Z,99301.44
2023-05-22T06:59:47.157Z,99305.50
2023-05-22T07:03:23.316Z,99299.19
2023-05-22T07:06:49.010Z,99299.75
2023-05-22T07:09:53.132Z,99302.94
2023-05-22T07:12:59.168Z,99304.91
2023-05-22T07:16:03.309Z,99299.50
2023-05-22T07:19:08.988Z,99307.72
2023-05-22T07:22:13.255Z,99301.94
2023-05-22T07:25:21.223Z,99300.75
2023-05-22T07:28:26.967Z,99297.59
2023-05-22T07:31:39.412Z,99303.59
2023-05-22T07:34:44.656Z,99300.28
2023-05-22T07:37:48.749Z,99305.28
2023-05-22T07:40:53.268Z,99308.59
2023-05-22T07:43:59.165Z,99305.47
2023-05-22T07:47:09.385Z,99306.75
2023-05-22T07:50:13.763Z,99307.94
2023-05-22T07:53:21.136Z,99299.97
2023-05-22T07:56:28.014Z,99302.63
2023-05-22T07:59:34.631Z,99306.56
2023-05-22T08:02:38.913Z,99304.13
2023-05-22T08:05:43.229Z,99302.56
2023-05-22T08:08:47.259Z,99293.72
2023-05-22T08:11:51.264Z,99304.53
2023-05-22T08:14:56.776Z,99299.28
2023-05-22T08:18:00.709Z,99298.50
2023-05-22T08:21:04.923Z,99294.50
2023-05-22T08:24:09.612Z,99301.88
2023-05-22T08:27:14.031Z,99300.09
2023-05-22T08:30:19.739Z,99298.50
2023-05-22T08:33:23.898Z,99297.25
2023-05-22T08:36:27.943Z,99297.19
2023-05-22T08:39:32.373Z,99299.09
2023-05-22T08:42:36.411Z,99298.44
2023-05-22T08:45:42.837Z,99293.56
2023-05-22T08:48:47.557Z,99300.97
2023-05-22T08:51:56.526Z,99298.91
2023-05-22T08:55:01.760Z,99295.50
2023-05-22T08:58:07.042Z,99292.22
2023-05-22T09:01:12.769Z,99289.09
2023-05-22T09:04:17.113Z,99290.44
2023-05-22T09:07:22.575Z,99287.44
2023-05-22T09:10:26.620Z,99292.84
2023-05-22T09:13:31.658Z,99282.25
2023-05-22T09:16:46.414Z,99279.56
2023-05-22T09:19:50.478Z,99272.81
2023-05-22T09:22:54.551Z,99273.78
2023-05-22T09:25:59.728Z,99282.59
2023-05-22T09:29:03.949Z,99275.88
2023-05-22T09:32:15.430Z,99283.22
2023-05-22T09:35:20.890Z,99277.44
2023-05-22T09:38:28.375Z,99279.00
2023-05-22T09:41:35.791Z,99279.19
2023-05-22T09:44:40.386Z,99277.75
2023-05-22T09:47:51.130Z,99273.50
2023-05-22T09:50:56.581Z,99268.50
2023-05-22T09:54:07.188Z,99274.94
2023-05-22T09:57:15.533Z,99258.13
2023-05-22T10:00:20.773Z,99260.28
2023-05-22T10:03:28.296Z,99262.59
2023-05-22T10:06:35.055Z,99262.31
2023-05-22T10:09:41.530Z,99251.47
2023-05-22T10:12:50.031Z,99259.81
2023-05-22T10:15:55.013Z,99254.44
2023-05-22T10:19:01.518Z,99256.69
2023-05-22T10:22:06.635Z,99245.16
2023-05-22T10:25:12.025Z,99242.69
2023-05-22T10:28:23.193Z,99247.19
2023-05-22T10:31:34.005Z,99239.75
2023-05-22T10:35:04.635Z,99256.16
2023-05-22T10:38:27.846Z,99247.16
2023-05-22T10:41:32.319Z,99241.88
2023-05-22T10:44:36.685Z,99244.66
2023-05-22T10:47:41.041Z,99244.94
2023-05-22T10:50:54.450Z,99232.19
2023-05-22T10:54:02.587Z,99236.91
2023-05-22T10:57:12.571Z,99220.22
2023-05-22T11:00:19.647Z,99216.59
2023-05-22T11:03:28.812Z,99217.94
2023-05-22T11:06:39.123Z,99205.66
2023-05-22T11:09:46.322Z,99198.88
2023-05-22T11:13:03.984Z,99207.75
2023-05-22T11:16:09.969Z,99206.47
2023-05-22T11:22:25.634Z,99209.75
2023-05-22T11:25:30.954Z,99201.16
2023-05-22T11:28:35.105Z,99198.47
2023-05-22T11:31:39.864Z,99208.28
2023-05-22T11:34:44.527Z,99214.53
2023-05-22T11:37:51.696Z,99212.72
2023-05-22T11:40:55.705Z,99231.00
2023-05-22T11:44:00.024Z,99258.63
2023-05-22T11:47:04.730Z,99262.41
2023-05-22T11:50:11.718Z,99273.03
2023-05-22T11:53:17.296Z,99272.69
2023-05-22T11:56:23.928Z,99287.44
2023-05-22T11:59:28.958Z,99279.38
2023-05-22T12:02:33.018Z,99271.34
2023-05-22T12:05:37.025Z,99260.31
2023-05-22T12:08:43.133Z,99250.28
2023-05-22T12:11:48.417Z,99241.50
2023-05-22T12:14:52.630Z,99237.00
2023-05-22T12:17:57.319Z,99240.03
2023-05-22T12:21:01.354Z,99239.00
2023-05-22T12:24:07.762Z,99241.31
2023-05-22T12:27:12.296Z,99231.91
2023-05-22T12:30:17.316Z,99239.31
2023-05-22T12:33:21.540Z,99237.25
2023-05-22T12:36:35.226Z,99232.97
2023-05-22T12:39:40.772Z,99240.28
2023-05-22T12:42:45.256Z,99229.75
2023-05-22T12:45:49.440Z,99226.84
2023-05-22T12:48:53.523Z,99232.72
2023-05-22T12:51:57.724Z,99236.19
2023-05-22T12:55:03.212Z,99236.06
2023-05-22T12:58:07.372Z,99232.59
2023-05-22T13:01:11.673Z,99235.13
2023-05-22T13:04:15.858Z,99221.88
2023-05-22T13:07:19.981Z,99221.78
2023-05-22T13:10:25.614Z,99222.69
2023-05-22T13:13:29.750Z,99222.81
2023-05-22T13:16:33.926Z,99220.03
2023-05-22T13:19:38.517Z,99232.50
2023-05-22T13:22:43.302Z,99232.28
2023-05-22T13:25:48.829Z,99219.53
2023-05-22T13:28:52.819Z,99217.44
2023-05-22T13:31:56.816Z,99218.56
2023-05-22T13:35:01.251Z,99212.91
2023-05-22T13:38:05.374Z,99207.84
2023-05-22T13:41:10.903Z,99213.06
2023-05-22T13:44:15.016Z,99205.75
2023-05-22T13:47:19.316Z,99205.84
2023-05-22T13:50:23.385Z,99197.88
2023-05-22T13:53:27.574Z,99200.03
2023-05-22T13:56:33.109Z,99191.88
2023-05-22T13:59:37.114Z,99189.44
2023-05-22T14:02:41.409Z,99197.97
2023-05-22T14:05:45.537Z,99198.72
2023-05-22T14:08:49.965Z,99192.16
2023-05-22T14:11:55.555Z,99198.22
2023-05-22T14:14:59.724Z,99192.84
2023-05-22T14:18:03.838Z,99188.66
2023-05-22T14:21:08.101Z,99185.19
2023-05-22T14:24:12.110Z,99175.63
2023-05-22T14:27:17.811Z,99184.75
2023-05-22T14:30:21.843Z,99183.03
2023-05-22T14:33:25.972Z,99173.03
2023-05-22T14:36:30.055Z,99169.75
2023-05-22T14:39:34.130Z,99180.50
2023-05-22T14:42:39.589Z,99181.34
2023-05-22T14:45:43.627Z,99182.25
2023-05-22T14:48:47.703Z,99181.56
2023-05-22T14:51:51.850Z,99178.44
2023-05-22T14:54:55.991Z,99179.25
2023-05-22T14:58:01.527Z,99177.59
2023-05-22T15:01:06.726Z,99174.19
2023-05-22T15:04:11.417Z,99175.00
2023-05-22T15:07:15.554Z,99179.94
2023-05-22T15:10:19.648Z,99177.88
2023-05-22T15:13:25.181Z,99173.44
2023-05-22T15:16:29.272Z,99186.78
2023-05-22T15:19:33.378Z,99185.97
2023-05-22T15:22:37.559Z,99199.72
2023-05-22T15:25:43.136Z,99188.13
2023-05-22T15:28:48.761Z,99199.34
2023-05-22T15:31:52.909Z,99197.63
2023-05-22T15:34:57.002Z,99202.50
2023-05-22T15:38:01.033Z,99200.63
2023-05-22T15:41:05.096Z,99214.81
2023-05-22T15:44:12.466Z,99222.13
2023-05-22T15:47:17.016Z,99227.41
2023-05-22T15:50:21.036Z,99232.06
2023-05-22T15:53:25.093Z,99240.69
2023-05-22T15:56:29.053Z,99232.88
2023-05-22T15:59:34.489Z,99228.53
2023-05-22T16:02:38.685Z,99220.88
2023-05-22T16:05:42.790Z,99230.06
2023-05-22T16:08:46.914Z,99225.06
2023-05-22T16:11:51.101Z,99225.91
2023-05-22T16:15:00.424Z,99226.81
2023-05-22T16:18:05.508Z,99222.91
2023-05-22T16:21:09.492Z,99233.72
2023-05-22T16:24:13.524Z,99229.94
2023-05-22T16:27:17.532Z,99232.75
2023-05-22T16:30:23.140Z,99233.13
2023-05-22T16:33:27.177Z,99236.09
2023-05-22T16:36:31.444Z,99235.47
2023-05-22T16:39:35.376Z,99236.28
2023-05-22T16:42:39.559Z,99241.69
2023-05-22T16:45:47.887Z,99258.09
2023-05-22T16:48:53.163Z,99272.06
2023-05-22T16:51:57.202Z,99273.75
2023-05-22T16:55:01.543Z,99267.72
2023-05-22T16:58:05.664Z,99266.63
2023-05-22T17:01:11.402Z,99277.38
2023-05-22T17:04:16.254Z,99273.81
2023-05-22T17:07:20.273Z,99274.44
2023-05-22T17:10:24.301Z,99272.78
2023-05-22T17:13:28.335Z,99285.22
2023-05-22T17:16:34.510Z,99281.66
2023-05-22T17:19:39.157Z,99282.09
2023-05-22T17:22:43.289Z,99278.56
2023-05-22T17:25:47.987Z,99276.66
2023-05-22T17:28:52.024Z,99291.63
2023-05-22T17:31:57.540Z,99304.50
2023-05-22T17:35:02.078Z,99312.63
2023-05-22T17:38:08.095Z,99331.44
2023-05-22T17:41:12.092Z,99336.94
2023-05-22T17:44:16.129Z,99328.06
2023-05-22T17:47:21.671Z,99326.19
2023-05-22T17:50:26.123Z,99334.09
2023-05-22T17:53:35.192Z,99350.03
2023-05-22T17:56:40.979Z,99347.22
2023-05-22T17:59:45.434Z,99339.94
2023-05-22T18:02:51.076Z,99344.03
2023-05-22T18:05:55.332Z,99340.81
2023-05-22T18:08:59.419Z,99335.44
2023-05-22T18:12:04.024Z,99332.75
2023-05-22T18:15:11.078Z,99334.31
2023-05-22T18:18:16.950Z,99339.75
2023-05-22T18:21:21.060Z,99331.56
2023-05-22T18:24:25.408Z,99331.75
2023-05-22T18:27:29.550Z,99337.09
2023-05-22T18:30:33.547Z,99341.31
2023-05-22T18:33:40.003Z,99346.59
2023-05-22T18:36:44.068Z,99344.28
2023-05-22T18:39:48.250Z,99340.00
2023-05-22T18:42:52.290Z,99351.69
2023-05-22T18:45:58.115Z,99358.00
2023-05-22T18:49:03.831Z,99368.16
2023-05-22T18:52:07.932Z,99363.72
2023-05-22T18:55:12.639Z,99364.31
2023-05-22T18:58:16.699Z,99366.75
2023-05-22T19:01:20.647Z,99373.09
2023-05-22T19:04:26.138Z,99386.53
2023-05-22T19:07:30.268Z,99385.72
2023-05-22T19:10:34.674Z,99392.63
2023-05-22T19:13:38.720Z,99396.06
2023-05-22T19:16:43.867Z,99391.84
2023-05-22T19:19:49.682Z,99384.94
2023-05-22T19:22:54.247Z,99373.13
2023-05-22T19:25:58.545Z,99371.53
2023-05-22T19:29:02.525Z,99378.00
2023-05-22T19:32:06.861Z,99378.44
2023-05-22T19:35:12.753Z,99382.28
2023-05-22T19:38:16.876Z,99375.16
2023-05-22T19:41:20.900Z,99378.22
2023-05-22T19:44:26.093Z,99384.75
2023-05-22T19:47:30.611Z,99390.22
2023-05-22T19:50:37.078Z,99396.13
2023-05-22T19:53:41.536Z,99407.31
2023-05-22T19:56:46.059Z,99396.34
2023-05-22T19:59:50.071Z,99390.63
2023-05-22T20:02:54.112Z,99396.34
2023-05-22T20:05:59.631Z,99389.63
2023-05-22T20:09:06.062Z,99388.81
2023-05-22T20:12:10.815Z,99392.47
2023-05-22T20:15:15.585Z,99394.69
2023-05-22T20:18:21.024Z,99385.16
2023-05-22T20:21:26.647Z,99383.25
2023-05-22T20:24:31.373Z,99392.28
2023-05-22T20:27:35.430Z,99381.88
2023-05-22T20:30:39.395Z,99384.53
2023-05-22T20:33:43.392Z,99377.16
2023-05-22T20:36:49.119Z,99369.38
2023-05-22T20:39:53.170Z,99369.44
2023-05-22T20:42:57.820Z,99362.91
2023-05-22T20:46:02.735Z,99363.09
2023-05-22T20:49:06.879Z,99359.44
2023-05-22T20:52:13.671Z,99357.00
2023-05-22T20:55:17.613Z,99357.97
2023-05-22T20:58:23.264Z,99358.41
2023-05-22T21:01:28.455Z,99358.63
2023-05-22T21:04:32.473Z,99350.47
2023-05-22T21:07:38.079Z,99353.34
2023-05-22T21:10:42.333Z,99352.91
2023-05-22T21:13:46.460Z,99352.34
2023-05-22T21:16:50.501Z,99343.16
2023-05-22T21:19:54.478Z,99345.63
2023-05-22T21:22:59.989Z,99337.25
2023-05-22T21:26:04.562Z,99338.47
2023-05-22T21:29:08.651Z,99338.06
2023-05-22T21:32:13.022Z,99338.47
2023-05-22T21:35:17.102Z,99340.94
2023-05-22T21:38:22.623Z,99334.41
2023-05-22T21:41:27.686Z,99331.38
2023-05-22T21:44:31.663Z,99325.47
2023-05-22T21:47:35.703Z,99328.31
2023-05-22T21:50:40.005Z,99328.31
2023-05-22T21:53:45.600Z,99325.84
2023-05-22T21:56:49.590Z,99336.25
2023-05-22T21:59:53.532Z,99338.06
2023-05-22T22:02:58.321Z,99338.69
2023-05-22T22:06:02.344Z,99342.53
2023-05-22T22:09:07.827Z,99337.66
2023-05-22T22:12:11.859Z,99331.97
2023-05-22T22:15:16.009Z,99334.63
2023-05-22T22:18:20.000Z,99325.66
2023-05-22T22:21:23.924Z,99329.72
2023-05-22T22:24:29.595Z,99327.47
2023-05-22T22:27:33.814Z,99323.34
2023-05-22T22:30:37.902Z,99325.44
2023-05-22T22:33:42.041Z,99322.75
2023-05-22T22:36:46.080Z,99318.28
2023-05-22T22:39:51.718Z,99313.63
2023-05-22T22:42:55.587Z,99320.78
2023-05-22T22:45:59.723Z,99318.13
2023-05-22T22:49:03.676Z,99316.03
2023-05-22T22:52:07.900Z,99309.94
2023-05-22T22:55:13.774Z,99315.63
2023-05-22T22:58:19.054Z,99310.31
2023-05-22T23:01:23.067Z,99305.22
2023-05-22T23:04:28.468Z,99321.25
2023-05-22T23:07:32.465Z,99308.72
2023-05-22T23:10:37.979Z,99304.63
2023-05-22T23:13:43.656Z,99309.03
2023-05-22T23:16:47.926Z,99313.25
2023-05-22T23:19:51.860Z,99312.81
2023-05-22T23:22:55.945Z,99310.81
2023-05-22T23:26:01.545Z,99302.34
2023-05-22T23:29:05.693Z,99305.56
2023-05-22T23:32:10.523Z,99296.44
2023-05-22T23:35:15.683Z,99303.81
2023-05-22T23:38:19.737Z,99299.00
2023-05-22T23:41:26.022Z,99286.22
2023-05-22T23:44:30.935Z,99291.03
2023-05-22T23:47:35.045Z,99288.94
2023-05-22T23:50:39.067Z,99299.91
2023-05-22T23:53:43.476Z,99293.25
2023-05-22T23:56:49.000Z,99295.53
2023-05-22T23:59:53.100Z,99301.72
